Time;durP1;ratioP1;P1;durP2;ratioP2;P2;SDS_P1;SDS_P2;PMS_P1;PMS_P2;Temp;Humidity;BMP_temperature;BMP_pressure;BME280_temperature;BME280_humidity;BME280_pressure;Samples;Min_cycle;Max_cycle;Signal;HPM_P1;HPM_P2
2021/03/03 00:01:02;;;;;;;11.15;6.05;;;11.5;92.1;;;;;;;;;
2021/03/03 00:02:02;;;;;;;12.43;6.72;;;11.5;92.4;;;;;;;;;
2021/03/03 00:03:02;;;;;;;10.27;6.15;;;11.4;92.5;;;;;;;;;
2021/03/03 00:03:12;;;;;;;10.27;6.15;;;11.4;92.5;;;;;;;;;
2021/03/03 00:04:02;;;;;;;11.25;6.63;;;11.4;92.6;;;;;;;;;
2021/03/03 00:04:14;;;;;;;11.25;6.63;;;11.4;92.6;;;;;;;;;
2021/03/03 00:05:02;;;;;;;10.6;6.85;;;11.4;92.5;;;;;;;;;
2021/03/03 00:05:15;;;;;;;10.6;6.85;;;11.4;92.5;;;;;;;;;
2021/03/03 00:05:25;;;;;;;8.93;6.5;;;11.4;92.6;;;;;;;;;
2021/03/03 00:06:02;;;;;;;8.93;6.5;;;11.4;92.6;;;;;;;;;
2021/03/03 00:06:16;;;;;;;8.93;6.5;;;11.4;92.6;;;;;;;;;
2021/03/03 00:06:27;;;;;;;12.3;6.57;;;11.4;92.5;;;;;;;;;
2021/03/03 00:07:02;;;;;;;12.3;6.57;;;11.4;92.5;;;;;;;;;
2021/03/03 00:07:13;;;;;;;12.3;6.57;;;11.4;92.5;;;;;;;;;
2021/03/03 00:07:28;;;;;;;11.63;6.43;;;11.4;92.5;;;;;;;;;
2021/03/03 00:07:38;;;;;;;11.63;6.43;;;11.4;92.5;;;;;;;;;
2021/03/03 00:08:02;;;;;;;11.63;6.43;;;11.4;92.5;;;;;;;;;
2021/03/03 00:08:14;;;;;;;11.63;6.43;;;11.4;92.5;;;;;;;;;
2021/03/03 00:08:30;;;;;;;9.38;6.32;;;11.4;92.5;;;;;;;;;
2021/03/03 00:08:40;;;;;;;9.38;6.32;;;11.4;92.5;;;;;;;;;
2021/03/03 00:09:02;;;;;;;9.38;6.32;;;11.4;92.5;;;;;;;;;
2021/03/03 00:09:16;;;;;;;9.38;6.32;;;11.4;92.5;;;;;;;;;
2021/03/03 00:09:26;;;;;;;13.2;6.85;;;11.4;92.6;;;;;;;;;
2021/03/03 00:09:41;;;;;;;13.2;6.85;;;11.4;92.6;;;;;;;;;
2021/03/03 00:09:51;;;;;;;13.2;6.85;;;11.4;92.6;;;;;;;;;
2021/03/03 00:10:02;;;;;;;13.2;6.85;;;11.4;92.6;;;;;;;;;
2021/03/03 00:10:12;;;;;;;13.2;6.85;;;11.4;92.6;;;;;;;;;
2021/03/03 00:10:27;;;;;;;10.82;7.53;;;11.4;92.6;;;;;;;;;
2021/03/03 00:10:43;;;;;;;10.82;7.53;;;11.4;92.6;;;;;;;;;
2021/03/03 00:10:53;;;;;;;10.82;7.53;;;11.4;92.6;;;;;;;;;
2021/03/03 00:11:02;;;;;;;10.82;7.53;;;11.4;92.6;;;;;;;;;
2021/03/03 00:11:13;;;;;;;10.82;7.53;;;11.4;92.6;;;;;;;;;
2021/03/03 00:11:29;;;;;;;9.48;6.88;;;11.3;92.6;;;;;;;;;
2021/03/03 00:11:39;;;;;;;9.48;6.88;;;11.3;92.6;;;;;;;;;
2021/03/03 00:11:54;;;;;;;9.48;6.88;;;11.3;92.6;;;;;;;;;
2021/03/03 00:12:02;;;;;;;9.48;6.88;;;11.3;92.6;;;;;;;;;
2021/03/03 00:12:05;;;;;;;9.48;6.88;;;11.3;92.6;;;;;;;;;
2021/03/03 00:12:15;;;;;;;9.48;6.88;;;11.3;92.6;;;;;;;;;
2021/03/03 00:12:25;;;;;;;11.82;6.75;;;11.3;92.6;;;;;;;;;
2021/03/03 00:12:40;;;;;;;11.82;6.75;;;11.3;92.6;;;;;;;;;
2021/03/03 00:12:56;;;;;;;11.82;6.75;;;11.3;92.6;;;;;;;;;
2021/03/03 00:13:02;;;;;;;11.82;6.75;;;11.3;92.6;;;;;;;;;
2021/03/03 00:13:06;;;;;;;11.82;6.75;;;11.3;92.6;;;;;;;;;
2021/03/03 00:13:16;;;;;;;11.82;6.75;;;11.3;92.6;;;;;;;;;
2021/03/03 00:13:26;;;;;;;10.93;6.32;;;11.3;92.7;;;;;;;;;
2021/03/03 00:13:42;;;;;;;10.93;6.32;;;11.3;92.7;;;;;;;;;
2021/03/03 00:13:52;;;;;;;10.93;6.32;;;11.3;92.7;;;;;;;;;
2021/03/03 00:14:02;;;;;;;10.93;6.32;;;11.3;92.7;;;;;;;;;
2021/03/03 00:14:07;;;;;;;10.93;6.32;;;11.3;92.7;;;;;;;;;
2021/03/03 00:14:13;;;;;;;10.93;6.32;;;11.3;92.7;;;;;;;;;
2021/03/03 00:14:28;;;;;;;10.93;6.78;;;11.3;92.7;;;;;;;;;
2021/03/03 00:14:38;;;;;;;10.93;6.78;;;11.3;92.7;;;;;;;;;
2021/03/03 00:14:54;;;;;;;10.93;6.78;;;11.3;92.7;;;;;;;;;
2021/03/03 00:15:01;;;;;;;10.93;6.78;;;11.3;92.7;;;;;;;;;
2021/03/03 00:15:09;;;;;;;10.93;6.78;;;11.3;92.7;;;;;;;;;
2021/03/03 00:15:14;;;;;;;10.93;6.78;;;11.3;92.7;;;;;;;;;
2021/03/03 00:15:29;;;;;;;9.7;6.1;;;11.3;92.8;;;;;;;;;
2021/03/03 00:15:40;;;;;;;9.7;6.1;;;11.3;92.8;;;;;;;;;
2021/03/03 00:15:55;;;;;;;9.7;6.1;;;11.3;92.8;;;;;;;;;
2021/03/03 00:16:02;;;;;;;9.7;6.1;;;11.3;92.8;;;;;;;;;
2021/03/03 00:16:05;;;;;;;9.7;6.1;;;11.3;92.8;;;;;;;;;
2021/03/03 00:16:15;;;;;;;9.7;6.1;;;11.3;92.8;;;;;;;;;
2021/03/03 00:16:26;;;;;;;11.05;6.85;;;11.4;92.7;;;;;;;;;
2021/03/03 00:16:41;;;;;;;11.05;6.85;;;11.4;92.7;;;;;;;;;
2021/03/03 00:16:51;;;;;;;11.05;6.85;;;11.4;92.7;;;;;;;;;
2021/03/03 00:17:02;;;;;;;11.05;6.85;;;11.4;92.7;;;;;;;;;
2021/03/03 00:17:07;;;;;;;11.05;6.85;;;11.4;92.7;;;;;;;;;
2021/03/03 00:17:12;;;;;;;11.05;6.85;;;11.4;92.7;;;;;;;;;
2021/03/03 00:17:27;;;;;;;9.77;6.53;;;11.4;92.7;;;;;;;;;
2021/03/03 00:17:42;;;;;;;9.77;6.53;;;11.4;92.7;;;;;;;;;
2021/03/03 00:17:53;;;;;;;9.77;6.53;;;11.4;92.7;;;;;;;;;
2021/03/03 00:18:02;;;;;;;9.77;6.53;;;11.4;92.7;;;;;;;;;
2021/03/03 00:18:08;;;;;;;9.77;6.53;;;11.4;92.7;;;;;;;;;
2021/03/03 00:18:13;;;;;;;9.77;6.53;;;11.4;92.7;;;;;;;;;
2021/03/03 00:18:29;;;;;;;11.73;6.53;;;11.4;92.6;;;;;;;;;
2021/03/03 00:18:39;;;;;;;11.73;6.53;;;11.4;92.6;;;;;;;;;
2021/03/03 00:18:54;;;;;;;11.73;6.53;;;11.4;92.6;;;;;;;;;
2021/03/03 00:19:02;;;;;;;11.73;6.53;;;11.4;92.6;;;;;;;;;
2021/03/03 00:19:04;;;;;;;11.73;6.53;;;11.4;92.6;;;;;;;;;
2021/03/03 00:19:15;;;;;;;11.73;6.53;;;11.4;92.6;;;;;;;;;
2021/03/03 00:19:25;;;;;;;9.07;6.07;;;11.4;92.6;;;;;;;;;
2021/03/03 00:19:40;;;;;;;9.07;6.07;;;11.4;92.6;;;;;;;;;
2021/03/03 00:19:56;;;;;;;9.07;6.07;;;11.4;92.6;;;;;;;;;
2021/03/03 00:20:01;;;;;;;9.07;6.07;;;11.4;92.6;;;;;;;;;
2021/03/03 00:20:06;;;;;;;9.07;6.07;;;11.4;92.6;;;;;;;;;
2021/03/03 00:20:16;;;;;;;9.07;6.07;;;11.4;92.6;;;;;;;;;
2021/03/03 00:20:26;;;;;;;9.95;5.5;;;11.4;92.5;;;;;;;;;
2021/03/03 00:20:42;;;;;;;9.95;5.5;;;11.4;92.5;;;;;;;;;
2021/03/03 00:20:52;;;;;;;9.95;5.5;;;11.4;92.5;;;;;;;;;
2021/03/03 00:21:02;;;;;;;9.95;5.5;;;11.4;92.5;;;;;;;;;
2021/03/03 00:21:07;;;;;;;9.95;5.5;;;11.4;92.5;;;;;;;;;
2021/03/03 00:21:12;;;;;;;9.95;5.5;;;11.4;92.5;;;;;;;;;
2021/03/03 00:21:28;;;;;;;11.18;6.9;;;11.5;92.5;;;;;;;;;
2021/03/03 00:21:38;;;;;;;11.18;6.9;;;11.5;92.5;;;;;;;;;
2021/03/03 00:21:53;;;;;;;11.18;6.9;;;11.5;92.5;;;;;;;;;
2021/03/03 00:22:02;;;;;;;11.18;6.9;;;11.5;92.5;;;;;;;;;
2021/03/03 00:22:10;;;;;;;11.18;6.9;;;11.5;92.5;;;;;;;;;
2021/03/03 00:22:14;;;;;;;11.18;6.9;;;11.5;92.5;;;;;;;;;
2021/03/03 00:22:29;;;;;;;10.82;6.45;;;11.5;92.3;;;;;;;;;
2021/03/03 00:22:39;;;;;;;10.82;6.45;;;11.5;92.3;;;;;;;;;
2021/03/03 00:22:55;;;;;;;10.82;6.45;;;11.5;92.3;;;;;;;;;
2021/03/03 00:23:02;;;;;;;10.82;6.45;;;11.5;92.3;;;;;;;;;
2021/03/03 00:23:05;;;;;;;10.82;6.45;;;11.5;92.3;;;;;;;;;
2021/03/03 00:23:15;;;;;;;10.82;6.45;;;11.5;92.3;;;;;;;;;
2021/03/03 00:23:26;;;;;;;10.05;6.65;;;11.5;92.4;;;;;;;;;
2021/03/03 00:23:41;;;;;;;10.05;6.65;;;11.5;92.4;;;;;;;;;
2021/03/03 00:23:51;;;;;;;10.05;6.65;;;11.5;92.4;;;;;;;;;
2021/03/03 00:24:02;;;;;;;10.05;6.65;;;11.5;92.4;;;;;;;;;
2021/03/03 00:24:06;;;;;;;10.05;6.65;;;11.5;92.4;;;;;;;;;
2021/03/03 00:24:17;;;;;;;10.05;6.65;;;11.5;92.4;;;;;;;;;
2021/03/03 00:24:27;;;;;;;14.3;6.8;;;11.5;92.4;;;;;;;;;
2021/03/03 00:24:42;;;;;;;14.3;6.8;;;11.5;92.4;;;;;;;;;
2021/03/03 00:24:55;;;;;;;14.3;6.8;;;11.5;92.4;;;;;;;;;
2021/03/03 00:25:01;;;;;;;14.3;6.8;;;11.5;92.4;;;;;;;;;
2021/03/03 00:25:08;;;;;;;14.3;6.8;;;11.5;92.4;;;;;;;;;
2021/03/03 00:25:13;;;;;;;14.3;6.8;;;11.5;92.4;;;;;;;;;
2021/03/03 00:25:28;;;;;;;13.07;6.93;;;11.5;92.4;;;;;;;;;
2021/03/03 00:25:39;;;;;;;13.07;6.93;;;11.5;92.4;;;;;;;;;
2021/03/03 00:25:54;;;;;;;13.07;6.93;;;11.5;92.4;;;;;;;;;
2021/03/03 00:26:02;;;;;;;13.07;6.93;;;11.5;92.4;;;;;;;;;
2021/03/03 00:26:04;;;;;;;13.07;6.93;;;11.5;92.4;;;;;;;;;
2021/03/03 00:26:14;;;;;;;13.07;6.93;;;11.5;92.4;;;;;;;;;
2021/03/03 00:26:30;;;;;;;11.6;6.78;;;11.5;92.4;;;;;;;;;
2021/03/03 00:26:40;;;;;;;11.6;6.78;;;11.5;92.4;;;;;;;;;
2021/03/03 00:26:55;;;;;;;11.6;6.78;;;11.5;92.4;;;;;;;;;
2021/03/03 00:27:02;;;;;;;11.6;6.78;;;11.5;92.4;;;;;;;;;
2021/03/03 00:27:06;;;;;;;11.6;6.78;;;11.5;92.4;;;;;;;;;
2021/03/03 00:27:16;;;;;;;11.6;6.78;;;11.5;92.4;;;;;;;;;
2021/03/03 00:27:26;;;;;;;13.3;7;;;11.5;92.4;;;;;;;;;
2021/03/03 00:27:42;;;;;;;13.3;7;;;11.5;92.4;;;;;;;;;
2021/03/03 00:27:52;;;;;;;13.3;7;;;11.5;92.4;;;;;;;;;
2021/03/03 00:28:02;;;;;;;13.3;7;;;11.5;92.4;;;;;;;;;
2021/03/03 00:28:07;;;;;;;13.3;7;;;11.5;92.4;;;;;;;;;
2021/03/03 00:28:12;;;;;;;13.3;7;;;11.5;92.4;;;;;;;;;
2021/03/03 00:28:28;;;;;;;11.55;6.45;;;11.5;92.5;;;;;;;;;
2021/03/03 00:28:46;;;;;;;11.55;6.45;;;11.5;92.5;;;;;;;;;
2021/03/03 00:28:53;;;;;;;11.55;6.45;;;11.5;92.5;;;;;;;;;
2021/03/03 00:29:02;;;;;;;11.55;6.45;;;11.5;92.5;;;;;;;;;
2021/03/03 00:29:09;;;;;;;11.55;6.45;;;11.5;92.5;;;;;;;;;
2021/03/03 00:29:14;;;;;;;11.55;6.45;;;11.5;92.5;;;;;;;;;
2021/03/03 00:29:29;;;;;;;11.27;7.18;;;11.5;92.4;;;;;;;;;
2021/03/03 00:29:39;;;;;;;11.27;7.18;;;11.5;92.4;;;;;;;;;
2021/03/03 00:29:55;;;;;;;11.27;7.18;;;11.5;92.4;;;;;;;;;
2021/03/03 00:30:01;;;;;;;11.27;7.18;;;11.5;92.4;;;;;;;;;
2021/03/03 00:30:05;;;;;;;11.27;7.18;;;11.5;92.4;;;;;;;;;
2021/03/03 00:30:15;;;;;;;11.27;7.18;;;11.5;92.4;;;;;;;;;
2021/03/03 00:30:25;;;;;;;11.27;7.18;;;11.5;92.4;;;;;;;;;
2021/03/03 00:30:41;;;;;;;9.77;6.15;;;11.4;92.4;;;;;;;;;
2021/03/03 00:30:56;;;;;;;9.77;6.15;;;11.4;92.4;;;;;;;;;
2021/03/03 00:31:02;;;;;;;9.77;6.15;;;11.4;92.4;;;;;;;;;
2021/03/03 00:31:06;;;;;;;9.77;6.15;;;11.4;92.4;;;;;;;;;
2021/03/03 00:31:17;;;;;;;9.77;6.15;;;11.4;92.4;;;;;;;;;
2021/03/03 00:31:27;;;;;;;9.77;6.15;;;11.4;92.4;;;;;;;;;
2021/03/03 00:31:42;;;;;;;10.55;6.82;;;11.4;92.5;;;;;;;;;
2021/03/03 00:31:52;;;;;;;10.55;6.82;;;11.4;92.5;;;;;;;;;
2021/03/03 00:32:01;;;;;;;10.55;6.82;;;11.4;92.5;;;;;;;;;
2021/03/03 00:32:08;;;;;;;10.55;6.82;;;11.4;92.5;;;;;;;;;
2021/03/03 00:32:13;;;;;;;10.55;6.82;;;11.4;92.5;;;;;;;;;
2021/03/03 00:32:28;;;;;;;12.52;6.8;;;11.4;92.5;;;;;;;;;
2021/03/03 00:32:38;;;;;;;12.52;6.8;;;11.4;92.5;;;;;;;;;
2021/03/03 00:32:54;;;;;;;12.52;6.8;;;11.4;92.5;;;;;;;;;
2021/03/03 00:33:02;;;;;;;12.52;6.8;;;11.4;92.5;;;;;;;;;
2021/03/03 00:33:09;;;;;;;12.52;6.8;;;11.4;92.5;;;;;;;;;
2021/03/03 00:33:14;;;;;;;12.52;6.8;;;11.4;92.5;;;;;;;;;
2021/03/03 00:33:30;;;;;;;12.13;6.9;;;11.4;92.5;;;;;;;;;
2021/03/03 00:33:40;;;;;;;12.13;6.9;;;11.4;92.5;;;;;;;;;
2021/03/03 00:33:55;;;;;;;12.13;6.9;;;11.4;92.5;;;;;;;;;
2021/03/03 00:34:02;;;;;;;12.13;6.9;;;11.4;92.5;;;;;;;;;
2021/03/03 00:34:06;;;;;;;12.13;6.9;;;11.4;92.5;;;;;;;;;
2021/03/03 00:34:16;;;;;;;12.13;6.9;;;11.4;92.5;;;;;;;;;
2021/03/03 00:34:26;;;;;;;12.13;6.9;;;11.4;92.5;;;;;;;;;
2021/03/03 00:34:41;;;;;;;15.02;7.25;;;11.4;92.5;;;;;;;;;
2021/03/03 00:34:52;;;;;;;15.02;7.25;;;11.4;92.5;;;;;;;;;
2021/03/03 00:35:02;;;;;;;15.02;7.25;;;11.4;92.5;;;;;;;;;
2021/03/03 00:35:07;;;;;;;15.02;7.25;;;11.4;92.5;;;;;;;;;
2021/03/03 00:35:12;;;;;;;15.02;7.25;;;11.4;92.5;;;;;;;;;
2021/03/03 00:35:27;;;;;;;15.02;7.25;;;11.4;92.5;;;;;;;;;
2021/03/03 00:35:43;;;;;;;14.3;6.97;;;11.4;92.5;;;;;;;;;
2021/03/03 00:35:58;;;;;;;14.3;6.97;;;11.4;92.5;;;;;;;;;
2021/03/03 00:36:02;;;;;;;14.3;6.97;;;11.4;92.5;;;;;;;;;
2021/03/03 00:36:08;;;;;;;14.3;6.97;;;11.4;92.5;;;;;;;;;
2021/03/03 00:36:14;;;;;;;14.3;6.97;;;11.4;92.5;;;;;;;;;
2021/03/03 00:36:29;;;;;;;9.45;7.25;;;11.3;92.6;;;;;;;;;
2021/03/03 00:36:39;;;;;;;9.45;7.25;;;11.3;92.6;;;;;;;;;
2021/03/03 00:36:55;;;;;;;9.45;7.25;;;11.3;92.6;;;;;;;;;
2021/03/03 00:37:01;;;;;;;9.45;7.25;;;11.3;92.6;;;;;;;;;
2021/03/03 00:37:05;;;;;;;9.45;7.25;;;11.3;92.6;;;;;;;;;
2021/03/03 00:37:15;;;;;;;9.45;7.25;;;11.3;92.6;;;;;;;;;
2021/03/03 00:37:25;;;;;;;9.45;7.25;;;11.3;92.6;;;;;;;;;
2021/03/03 00:37:41;;;;;;;9.35;5.93;;;11.4;92.6;;;;;;;;;
2021/03/03 00:37:56;;;;;;;9.35;5.93;;;11.4;92.6;;;;;;;;;
2021/03/03 00:38:02;;;;;;;9.35;5.93;;;11.4;92.6;;;;;;;;;
2021/03/03 00:38:11;;;;;;;9.35;5.93;;;11.4;92.6;;;;;;;;;
2021/03/03 00:38:16;;;;;;;9.35;5.93;;;11.4;92.6;;;;;;;;;
2021/03/03 00:38:27;;;;;;;9.35;5.93;;;11.4;92.6;;;;;;;;;
2021/03/03 00:38:42;;;;;;;7.57;6.03;;;11.4;92.5;;;;;;;;;
2021/03/03 00:38:52;;;;;;;7.57;6.03;;;11.4;92.5;;;;;;;;;
2021/03/03 00:39:02;;;;;;;7.57;6.03;;;11.4;92.5;;;;;;;;;
2021/03/03 00:39:08;;;;;;;7.57;6.03;;;11.4;92.5;;;;;;;;;
2021/03/03 00:39:13;;;;;;;7.57;6.03;;;11.4;92.5;;;;;;;;;
2021/03/03 00:39:30;;;;;;;7.57;6.03;;;11.4;92.5;;;;;;;;;
2021/03/03 00:39:38;;;;;;;10.82;6.9;;;11.4;92.5;;;;;;;;;
2021/03/03 00:39:54;;;;;;;10.82;6.9;;;11.4;92.5;;;;;;;;;
2021/03/03 00:40:01;;;;;;;10.82;6.9;;;11.4;92.5;;;;;;;;;
2021/03/03 00:40:09;;;;;;;10.82;6.9;;;11.4;92.5;;;;;;;;;
2021/03/03 00:40:14;;;;;;;10.82;6.9;;;11.4;92.5;;;;;;;;;
2021/03/03 00:40:30;;;;;;;10.82;6.9;;;11.4;92.5;;;;;;;;;
2021/03/03 00:40:40;;;;;;;9.8;6.55;;;11.4;92.6;;;;;;;;;
2021/03/03 00:40:55;;;;;;;9.8;6.55;;;11.4;92.6;;;;;;;;;
2021/03/03 00:41:02;;;;;;;9.8;6.55;;;11.4;92.6;;;;;;;;;
2021/03/03 00:41:05;;;;;;;9.8;6.55;;;11.4;92.6;;;;;;;;;
2021/03/03 00:41:16;;;;;;;9.8;6.55;;;11.4;92.6;;;;;;;;;
2021/03/03 00:41:26;;;;;;;9.8;6.55;;;11.4;92.6;;;;;;;;;
2021/03/03 00:41:41;;;;;;;13.4;6.93;;;11.4;92.6;;;;;;;;;
2021/03/03 00:41:51;;;;;;;13.4;6.93;;;11.4;92.6;;;;;;;;;
2021/03/03 00:42:01;;;;;;;13.4;6.93;;;11.4;92.6;;;;;;;;;
2021/03/03 00:42:07;;;;;;;13.4;6.93;;;11.4;92.6;;;;;;;;;
2021/03/03 00:42:12;;;;;;;13.4;6.93;;;11.4;92.6;;;;;;;;;
2021/03/03 00:42:27;;;;;;;13.4;6.93;;;11.4;92.6;;;;;;;;;
2021/03/03 00:42:43;;;;;;;11.32;6.82;;;11.4;92.6;;;;;;;;;
2021/03/03 00:42:53;;;;;;;11.32;6.82;;;11.4;92.6;;;;;;;;;
2021/03/03 00:43:02;;;;;;;11.32;6.82;;;11.4;92.6;;;;;;;;;
2021/03/03 00:43:08;;;;;;;11.32;6.82;;;11.4;92.6;;;;;;;;;
2021/03/03 00:43:13;;;;;;;11.32;6.82;;;11.4;92.6;;;;;;;;;
2021/03/03 00:43:29;;;;;;;11.32;6.82;;;11.4;92.6;;;;;;;;;
2021/03/03 00:43:39;;;;;;;11.1;6.35;;;11.4;92.5;;;;;;;;;
2021/03/03 00:43:54;;;;;;;11.1;6.35;;;11.4;92.5;;;;;;;;;
2021/03/03 00:44:02;;;;;;;11.1;6.35;;;11.4;92.5;;;;;;;;;
2021/03/03 00:44:05;;;;;;;11.1;6.35;;;11.4;92.5;;;;;;;;;
2021/03/03 00:44:15;;;;;;;11.1;6.35;;;11.4;92.5;;;;;;;;;
2021/03/03 00:44:25;;;;;;;11.1;6.35;;;11.4;92.5;;;;;;;;;
2021/03/03 00:44:40;;;;;;;9.93;6.35;;;11.4;92.5;;;;;;;;;
2021/03/03 00:44:56;;;;;;;9.93;6.35;;;11.4;92.5;;;;;;;;;
2021/03/03 00:45:02;;;;;;;9.93;6.35;;;11.4;92.5;;;;;;;;;
2021/03/03 00:45:06;;;;;;;9.93;6.35;;;11.4;92.5;;;;;;;;;
2021/03/03 00:45:16;;;;;;;9.93;6.35;;;11.4;92.5;;;;;;;;;
2021/03/03 00:45:26;;;;;;;9.93;6.35;;;11.4;92.5;;;;;;;;;
2021/03/03 00:45:42;;;;;;;9.65;6.45;;;11.4;92.5;;;;;;;;;
2021/03/03 00:45:52;;;;;;;9.65;6.45;;;11.4;92.5;;;;;;;;;
2021/03/03 00:46:03;;;;;;;9.65;6.45;;;11.4;92.5;;;;;;;;;
2021/03/03 00:46:08;;;;;;;9.65;6.45;;;11.4;92.5;;;;;;;;;
2021/03/03 00:46:13;;;;;;;9.65;6.45;;;11.4;92.5;;;;;;;;;
2021/03/03 00:46:28;;;;;;;9.65;6.45;;;11.4;92.5;;;;;;;;;
2021/03/03 00:46:38;;;;;;;11.38;6.57;;;11.4;92.5;;;;;;;;;
2021/03/03 00:46:54;;;;;;;11.38;6.57;;;11.4;92.5;;;;;;;;;
2021/03/03 00:47:01;;;;;;;11.38;6.57;;;11.4;92.5;;;;;;;;;
2021/03/03 00:47:09;;;;;;;11.38;6.57;;;11.4;92.5;;;;;;;;;
2021/03/03 00:47:14;;;;;;;11.38;6.57;;;11.4;92.5;;;;;;;;;
2021/03/03 00:47:29;;;;;;;11.38;6.57;;;11.4;92.5;;;;;;;;;
2021/03/03 00:47:40;;;;;;;9.27;6.43;;;11.4;92.6;;;;;;;;;
2021/03/03 00:47:55;;;;;;;9.27;6.43;;;11.4;92.6;;;;;;;;;
2021/03/03 00:48:02;;;;;;;9.27;6.43;;;11.4;92.6;;;;;;;;;
2021/03/03 00:48:05;;;;;;;9.27;6.43;;;11.4;92.6;;;;;;;;;
2021/03/03 00:48:15;;;;;;;9.27;6.43;;;11.4;92.6;;;;;;;;;
2021/03/03 00:48:26;;;;;;;9.27;6.43;;;11.4;92.6;;;;;;;;;
2021/03/03 00:48:41;;;;;;;14.2;7.05;;;11.4;92.6;;;;;;;;;
2021/03/03 00:48:51;;;;;;;14.2;7.05;;;11.4;92.6;;;;;;;;;
2021/03/03 00:49:02;;;;;;;14.2;7.05;;;11.4;92.6;;;;;;;;;
2021/03/03 00:49:07;;;;;;;14.2;7.05;;;11.4;92.6;;;;;;;;;
2021/03/03 00:49:12;;;;;;;14.2;7.05;;;11.4;92.6;;;;;;;;;
2021/03/03 00:49:27;;;;;;;14.2;7.05;;;11.4;92.6;;;;;;;;;
2021/03/03 00:49:43;;;;;;;10.4;7.25;;;11.3;92.5;;;;;;;;;
2021/03/03 00:49:53;;;;;;;10.4;7.25;;;11.3;92.5;;;;;;;;;
2021/03/03 00:50:02;;;;;;;10.4;7.25;;;11.3;92.5;;;;;;;;;
2021/03/03 00:50:08;;;;;;;10.4;7.25;;;11.3;92.5;;;;;;;;;
2021/03/03 00:50:13;;;;;;;10.4;7.25;;;11.3;92.5;;;;;;;;;
2021/03/03 00:50:29;;;;;;;10.4;7.25;;;11.3;92.5;;;;;;;;;
2021/03/03 00:50:39;;;;;;;10.98;6.15;;;11.3;92.6;;;;;;;;;
2021/03/03 00:50:54;;;;;;;10.98;6.15;;;11.3;92.6;;;;;;;;;
2021/03/03 00:51:02;;;;;;;10.98;6.15;;;11.3;92.6;;;;;;;;;
2021/03/03 00:51:04;;;;;;;10.98;6.15;;;11.3;92.6;;;;;;;;;
2021/03/03 00:51:15;;;;;;;10.98;6.15;;;11.3;92.6;;;;;;;;;
2021/03/03 00:51:25;;;;;;;10.98;6.15;;;11.3;92.6;;;;;;;;;
2021/03/03 00:51:40;;;;;;;12.35;6.47;;;11.3;92.7;;;;;;;;;
2021/03/03 00:51:56;;;;;;;12.35;6.47;;;11.3;92.7;;;;;;;;;
2021/03/03 00:52:01;;;;;;;12.35;6.47;;;11.3;92.7;;;;;;;;;
2021/03/03 00:52:06;;;;;;;12.35;6.47;;;11.3;92.7;;;;;;;;;
2021/03/03 00:52:16;;;;;;;12.35;6.47;;;11.3;92.7;;;;;;;;;
2021/03/03 00:52:26;;;;;;;12.35;6.47;;;11.3;92.7;;;;;;;;;
2021/03/03 00:52:42;;;;;;;10.55;6.6;;;11.3;92.7;;;;;;;;;
2021/03/03 00:52:52;;;;;;;10.55;6.6;;;11.3;92.7;;;;;;;;;
2021/03/03 00:53:02;;;;;;;10.55;6.6;;;11.3;92.7;;;;;;;;;
2021/03/03 00:53:07;;;;;;;10.55;6.6;;;11.3;92.7;;;;;;;;;
2021/03/03 00:53:12;;;;;;;10.55;6.6;;;11.3;92.7;;;;;;;;;
2021/03/03 00:53:28;;;;;;;10.55;6.6;;;11.3;92.7;;;;;;;;;
2021/03/03 00:53:38;;;;;;;12.27;7.13;;;11.3;92.7;;;;;;;;;
2021/03/03 00:53:53;;;;;;;12.27;7.13;;;11.3;92.7;;;;;;;;;
2021/03/03 00:54:02;;;;;;;12.27;7.13;;;11.3;92.7;;;;;;;;;
2021/03/03 00:54:09;;;;;;;12.27;7.13;;;11.3;92.7;;;;;;;;;
2021/03/03 00:54:14;;;;;;;12.27;7.13;;;11.3;92.7;;;;;;;;;
2021/03/03 00:54:29;;;;;;;12.27;7.13;;;11.3;92.7;;;;;;;;;
2021/03/03 00:54:40;;;;;;;13.25;6.9;;;11.4;92.5;;;;;;;;;
2021/03/03 00:54:55;;;;;;;13.25;6.9;;;11.4;92.5;;;;;;;;;
2021/03/03 00:55:02;;;;;;;13.25;6.9;;;11.4;92.5;;;;;;;;;
2021/03/03 00:55:05;;;;;;;13.25;6.9;;;11.4;92.5;;;;;;;;;
2021/03/03 00:55:15;;;;;;;13.25;6.9;;;11.4;92.5;;;;;;;;;
2021/03/03 00:55:26;;;;;;;13.25;6.9;;;11.4;92.5;;;;;;;;;
2021/03/03 00:55:41;;;;;;;12.73;6.88;;;11.4;92.5;;;;;;;;;
2021/03/03 00:55:51;;;;;;;12.73;6.88;;;11.4;92.5;;;;;;;;;
2021/03/03 00:56:02;;;;;;;12.73;6.88;;;11.4;92.5;;;;;;;;;
2021/03/03 00:56:06;;;;;;;12.73;6.88;;;11.4;92.5;;;;;;;;;
2021/03/03 00:56:17;;;;;;;12.73;6.88;;;11.4;92.5;;;;;;;;;
2021/03/03 00:56:27;;;;;;;12.73;6.88;;;11.4;92.5;;;;;;;;;
2021/03/03 00:56:42;;;;;;;12.4;7;;;11.4;92.5;;;;;;;;;
2021/03/03 00:56:53;;;;;;;12.4;7;;;11.4;92.5;;;;;;;;;
2021/03/03 00:57:01;;;;;;;12.4;7;;;11.4;92.5;;;;;;;;;
2021/03/03 00:57:08;;;;;;;12.4;7;;;11.4;92.5;;;;;;;;;
2021/03/03 00:57:13;;;;;;;12.4;7;;;11.4;92.5;;;;;;;;;
2021/03/03 00:57:28;;;;;;;12.4;7;;;11.4;92.5;;;;;;;;;
2021/03/03 00:57:39;;;;;;;11.18;6.63;;;11.4;92.4;;;;;;;;;
2021/03/03 00:57:54;;;;;;;11.18;6.63;;;11.4;92.4;;;;;;;;;
2021/03/03 00:58:02;;;;;;;11.18;6.63;;;11.4;92.4;;;;;;;;;
2021/03/03 00:58:04;;;;;;;11.18;6.63;;;11.4;92.4;;;;;;;;;
2021/03/03 00:58:15;;;;;;;11.18;6.63;;;11.4;92.4;;;;;;;;;
2021/03/03 00:58:30;;;;;;;11.18;6.63;;;11.4;92.4;;;;;;;;;
2021/03/03 00:58:40;;;;;;;11.27;6.8;;;11.4;92.4;;;;;;;;;
2021/03/03 00:58:55;;;;;;;11.27;6.8;;;11.4;92.4;;;;;;;;;
2021/03/03 00:59:02;;;;;;;11.27;6.8;;;11.4;92.4;;;;;;;;;
2021/03/03 00:59:06;;;;;;;11.27;6.8;;;11.4;92.4;;;;;;;;;
2021/03/03 00:59:16;;;;;;;11.27;6.8;;;11.4;92.4;;;;;;;;;
2021/03/03 00:59:28;;;;;;;11.27;6.8;;;11.4;92.4;;;;;;;;;
2021/03/03 00:59:42;;;;;;;11.18;6.82;;;11.3;92.6;;;;;;;;;
2021/03/03 00:59:52;;;;;;;11.18;6.82;;;11.3;92.6;;;;;;;;;
2021/03/03 01:00:02;;;;;;;11.18;6.82;;;11.3;92.6;;;;;;;;;
2021/03/03 01:00:07;;;;;;;11.18;6.82;;;11.3;92.6;;;;;;;;;
2021/03/03 01:00:12;;;;;;;11.18;6.82;;;11.3;92.6;;;;;;;;;
2021/03/03 01:00:28;;;;;;;11.18;6.82;;;11.3;92.6;;;;;;;;;
2021/03/03 01:00:43;;;;;;;11.57;7.05;;;11.3;92.7;;;;;;;;;
2021/03/03 01:00:53;;;;;;;11.57;7.05;;;11.3;92.7;;;;;;;;;
2021/03/03 01:01:02;;;;;;;11.57;7.05;;;11.3;92.7;;;;;;;;;
2021/03/03 01:01:09;;;;;;;11.57;7.05;;;11.3;92.7;;;;;;;;;
2021/03/03 01:01:14;;;;;;;11.57;7.05;;;11.3;92.7;;;;;;;;;
2021/03/03 01:01:29;;;;;;;11.57;7.05;;;11.3;92.7;;;;;;;;;
2021/03/03 01:01:39;;;;;;;9.43;6.85;;;11.3;92.6;;;;;;;;;
2021/03/03 01:01:55;;;;;;;9.43;6.85;;;11.3;92.6;;;;;;;;;
2021/03/03 01:02:01;;;;;;;9.43;6.85;;;11.3;92.6;;;;;;;;;
2021/03/03 01:02:05;;;;;;;9.43;6.85;;;11.3;92.6;;;;;;;;;
2021/03/03 01:02:17;;;;;;;9.43;6.85;;;11.3;92.6;;;;;;;;;
2021/03/03 01:02:25;;;;;;;9.43;6.85;;;11.3;92.6;;;;;;;;;
2021/03/03 01:02:41;;;;;;;12.48;7.82;;;11.3;92.6;;;;;;;;;
2021/03/03 01:02:56;;;;;;;12.48;7.82;;;11.3;92.6;;;;;;;;;
2021/03/03 01:03:03;;;;;;;12.48;7.82;;;11.3;92.6;;;;;;;;;
2021/03/03 01:03:06;;;;;;;12.48;7.82;;;11.3;92.6;;;;;;;;;
2021/03/03 01:03:17;;;;;;;12.48;7.82;;;11.3;92.6;;;;;;;;;
2021/03/03 01:03:27;;;;;;;12.48;7.82;;;11.3;92.6;;;;;;;;;
2021/03/03 01:03:42;;;;;;;11.18;7.68;;;11.3;92.5;;;;;;;;;
2021/03/03 01:03:52;;;;;;;11.18;7.68;;;11.3;92.5;;;;;;;;;
2021/03/03 01:04:01;;;;;;;11.18;7.68;;;11.3;92.5;;;;;;;;;
2021/03/03 01:04:08;;;;;;;11.18;7.68;;;11.3;92.5;;;;;;;;;
2021/03/03 01:04:13;;;;;;;11.18;7.68;;;11.3;92.5;;;;;;;;;
2021/03/03 01:04:28;;;;;;;11.18;7.68;;;11.3;92.5;;;;;;;;;
2021/03/03 01:04:39;;;;;;;16.75;7.38;;;11.3;92.6;;;;;;;;;
2021/03/03 01:04:54;;;;;;;16.75;7.38;;;11.3;92.6;;;;;;;;;
2021/03/03 01:05:02;;;;;;;16.75;7.38;;;11.3;92.6;;;;;;;;;
2021/03/03 01:05:09;;;;;;;16.75;7.38;;;11.3;92.6;;;;;;;;;
2021/03/03 01:05:14;;;;;;;16.75;7.38;;;11.3;92.6;;;;;;;;;
2021/03/03 01:05:30;;;;;;;16.75;7.38;;;11.3;92.6;;;;;;;;;
2021/03/03 01:05:40;;;;;;;10.6;7.15;;;11.3;92.5;;;;;;;;;
2021/03/03 01:05:55;;;;;;;10.6;7.15;;;11.3;92.5;;;;;;;;;
2021/03/03 01:06:02;;;;;;;10.6;7.15;;;11.3;92.5;;;;;;;;;
2021/03/03 01:06:06;;;;;;;10.6;7.15;;;11.3;92.5;;;;;;;;;
2021/03/03 01:06:16;;;;;;;10.6;7.15;;;11.3;92.5;;;;;;;;;
2021/03/03 01:06:26;;;;;;;10.6;7.15;;;11.3;92.5;;;;;;;;;
2021/03/03 01:06:41;;;;;;;12.9;6.72;;;11.3;92.5;;;;;;;;;
2021/03/03 01:06:52;;;;;;;12.9;6.72;;;11.3;92.5;;;;;;;;;
2021/03/03 01:07:02;;;;;;;12.9;6.72;;;11.3;92.5;;;;;;;;;
2021/03/03 01:07:07;;;;;;;12.9;6.72;;;11.3;92.5;;;;;;;;;
2021/03/03 01:07:17;;;;;;;12.9;6.72;;;11.3;92.5;;;;;;;;;
2021/03/03 01:07:28;;;;;;;12.9;6.72;;;11.3;92.5;;;;;;;;;
2021/03/03 01:07:43;;;;;;;11.18;6.85;;;11.3;92.5;;;;;;;;;
2021/03/03 01:07:53;;;;;;;11.18;6.85;;;11.3;92.5;;;;;;;;;
2021/03/03 01:08:02;;;;;;;11.18;6.85;;;11.3;92.5;;;;;;;;;
2021/03/03 01:08:08;;;;;;;11.18;6.85;;;11.3;92.5;;;;;;;;;
2021/03/03 01:08:14;;;;;;;11.18;6.85;;;11.3;92.5;;;;;;;;;
2021/03/03 01:08:29;;;;;;;11.18;6.85;;;11.3;92.5;;;;;;;;;
2021/03/03 01:08:39;;;;;;;12.98;7.15;;;11.3;92.5;;;;;;;;;
2021/03/03 01:08:55;;;;;;;12.98;7.15;;;11.3;92.5;;;;;;;;;
2021/03/03 01:09:01;;;;;;;12.98;7.15;;;11.3;92.5;;;;;;;;;
2021/03/03 01:09:05;;;;;;;12.98;7.15;;;11.3;92.5;;;;;;;;;
2021/03/03 01:09:15;;;;;;;12.98;7.15;;;11.3;92.5;;;;;;;;;
2021/03/03 01:09:30;;;;;;;12.98;7.15;;;11.3;92.5;;;;;;;;;
2021/03/03 01:09:41;;;;;;;10.35;6.78;;;11.3;92.6;;;;;;;;;
2021/03/03 01:09:56;;;;;;;10.35;6.78;;;11.3;92.6;;;;;;;;;
2021/03/03 01:10:02;;;;;;;10.35;6.78;;;11.3;92.6;;;;;;;;;
2021/03/03 01:10:06;;;;;;;10.35;6.78;;;11.3;92.6;;;;;;;;;
2021/03/03 01:10:16;;;;;;;10.35;6.78;;;11.3;92.6;;;;;;;;;
2021/03/03 01:10:27;;;;;;;10.35;6.78;;;11.3;92.6;;;;;;;;;
2021/03/03 01:10:42;;;;;;;11.13;6.75;;;11.3;92.7;;;;;;;;;
2021/03/03 01:10:52;;;;;;;11.13;6.75;;;11.3;92.7;;;;;;;;;
2021/03/03 01:11:02;;;;;;;11.13;6.75;;;11.3;92.7;;;;;;;;;
2021/03/03 01:11:08;;;;;;;11.13;6.75;;;11.3;92.7;;;;;;;;;
2021/03/03 01:11:13;;;;;;;11.13;6.75;;;11.3;92.7;;;;;;;;;
2021/03/03 01:11:28;;;;;;;11.13;6.75;;;11.3;92.7;;;;;;;;;
2021/03/03 01:11:43;;;;;;;9.63;6.97;;;11.3;92.7;;;;;;;;;
2021/03/03 01:11:54;;;;;;;9.63;6.97;;;11.3;92.7;;;;;;;;;
2021/03/03 01:12:01;;;;;;;9.63;6.97;;;11.3;92.7;;;;;;;;;
2021/03/03 01:12:09;;;;;;;9.63;6.97;;;11.3;92.7;;;;;;;;;
2021/03/03 01:12:14;;;;;;;9.63;6.97;;;11.3;92.7;;;;;;;;;
2021/03/03 01:12:30;;;;;;;9.63;6.97;;;11.3;92.7;;;;;;;;;
2021/03/03 01:12:40;;;;;;;11.38;6.88;;;11.3;92.6;;;;;;;;;
2021/03/03 01:12:55;;;;;;;11.38;6.88;;;11.3;92.6;;;;;;;;;
2021/03/03 01:13:02;;;;;;;11.38;6.88;;;11.3;92.6;;;;;;;;;
2021/03/03 01:13:05;;;;;;;11.38;6.88;;;11.3;92.6;;;;;;;;;
2021/03/03 01:13:16;;;;;;;11.38;6.88;;;11.3;92.6;;;;;;;;;
2021/03/03 01:13:26;;;;;;;11.38;6.88;;;11.3;92.6;;;;;;;;;
2021/03/03 01:13:41;;;;;;;10.48;6.57;;;11.3;92.6;;;;;;;;;
2021/03/03 01:13:57;;;;;;;10.48;6.57;;;11.3;92.6;;;;;;;;;
2021/03/03 01:14:01;;;;;;;10.48;6.57;;;11.3;92.6;;;;;;;;;
2021/03/03 01:14:07;;;;;;;10.48;6.57;;;11.3;92.6;;;;;;;;;
2021/03/03 01:14:12;;;;;;;10.48;6.57;;;11.3;92.6;;;;;;;;;
2021/03/03 01:14:27;;;;;;;10.48;6.57;;;11.3;92.6;;;;;;;;;
2021/03/03 01:14:43;;;;;;;10.4;6.68;;;11.4;92.5;;;;;;;;;
2021/03/03 01:14:53;;;;;;;10.4;6.68;;;11.4;92.5;;;;;;;;;
2021/03/03 01:15:02;;;;;;;10.4;6.68;;;11.4;92.5;;;;;;;;;
2021/03/03 01:15:08;;;;;;;10.4;6.68;;;11.4;92.5;;;;;;;;;